Time;durP1;ratioP1;P1;durP2;ratioP2;P2;SDS_P1;SDS_P2;PMS_P1;PMS_P2;Temp;Humidity;BMP_temperature;BMP_pressure;BME280_temperature;BME280_humidity;BME280_pressure;Samples;Min_cycle;Max_cycle;Signal;HPM_P1;HPM_P2
2021/06/20 00:01:20;;;;;;;7.07;6.55;;;;;;;27.15;62.19;97937.66;4867161;28;103136;-81
2021/06/20 00:03:48;;;;;;;10.30;8.88;;;;;;;27.14;62.61;97930.59;4867241;28;103285;-79
2021/06/20 00:06:26;;;;;;;9.18;7.88;;;;;;;26.88;63.35;97921.84;4865709;28;103768;-79
2021/06/20 00:08:55;;;;;;;7.43;6.70;;;;;;;26.99;62.40;97914.78;4866924;28;103661;-81
2021/06/20 00:11:24;;;;;;;11.50;7.80;;;;;;;27.05;61.46;97922.81;4869893;28;102669;-79
2021/06/20 00:13:53;;;;;;;8.27;7.47;;;;;;;27.14;61.64;97922.47;4877680;28;102569;-79
2021/06/20 00:16:21;;;;;;;7.78;6.97;;;;;;;27.13;60.80;97935.19;4880116;28;103822;-80
2021/06/20 00:18:50;;;;;;;7.90;6.32;;;;;;;27.18;60.75;97915.50;4879795;28;103381;-80
2021/06/20 00:21:22;;;;;;;8.43;6.45;;;;;;;27.18;60.57;97931.75;4869505;28;102893;-79
2021/06/20 00:23:50;;;;;;;6.07;5.57;;;;;;;27.21;60.90;97923.16;4882548;28;103444;-79
2021/06/20 00:26:18;;;;;;;10.80;8.65;;;;;;;27.00;61.75;97933.50;4879189;28;103197;-80
2021/06/20 00:28:46;;;;;;;9.77;7.53;;;;;;;26.97;62.09;97936.72;4871862;28;103396;-80
2021/06/20 00:31:15;;;;;;;7.88;6.90;;;;;;;27.09;62.22;97938.63;4867138;28;103547;-80
2021/06/20 00:33:43;;;;;;;6.90;6.30;;;;;;;27.10;62.09;97934.81;4867382;28;103234;-80
2021/06/20 00:36:12;;;;;;;8.32;7.47;;;;;;;27.12;61.75;97930.03;4866267;28;104727;-80
2021/06/20 00:38:41;;;;;;;11.63;7.55;;;;;;;26.94;62.43;97937.19;4866069;28;103731;-80
2021/06/20 00:41:09;;;;;;;10.27;7.53;;;;;;;27.02;62.09;97942.25;4855868;28;103067;-81
2021/06/20 00:43:37;;;;;;;7.45;6.70;;;;;;;27.04;61.18;97953.69;4868783;28;103076;-81
2021/06/20 00:46:08;;;;;;;7.78;6.97;;;;;;;27.08;60.89;97958.63;4869312;28;104053;-80
2021/06/20 00:48:36;;;;;;;7.00;6.30;;;;;;;27.13;60.86;97951.47;4869571;28;103843;-80
2021/06/20 00:51:05;;;;;;;7.53;5.78;;;;;;;27.16;60.35;97958.28;4868638;28;102772;-80
2021/06/20 00:53:33;;;;;;;8.30;6.53;;;;;;;27.19;59.98;97960.53;4869251;28;103069;-80
2021/06/20 00:56:03;;;;;;;5.80;5.32;;;;;;;27.19;59.93;97960.53;4867383;28;104031;-79
2021/06/20 00:58:31;;;;;;;10.88;7.97;;;;;;;27.13;60.49;97961.47;4869164;28;103126;-80
2021/06/20 01:00:59;;;;;;;6.53;6.03;;;;;;;27.09;60.22;97955.69;4864785;28;103326;-79
2021/06/20 01:03:27;;;;;;;7.85;7.00;;;;;;;27.09;60.30;97957.59;4869180;28;103301;-80
2021/06/20 01:05:55;;;;;;;15.68;8.18;;;;;;;26.93;60.27;97957.19;4868355;28;104262;-79
2021/06/20 01:08:23;;;;;;;10.98;7.00;;;;;;;27.08;60.25;97955.94;4869244;28;103306;-80
2021/06/20 01:10:51;;;;;;;7.20;5.95;;;;;;;27.09;59.71;97952.97;4868975;28;102928;-80
2021/06/20 01:13:21;;;;;;;18.02;8.27;;;;;;;26.98;60.24;97957.31;4869209;28;103026;-80
2021/06/20 01:15:51;;;;;;;12.85;7.50;;;;;;;27.05;59.33;97963.47;4867228;28;103758;-80
2021/06/20 01:18:20;;;;;;;11.68;6.78;;;;;;;27.11;59.00;97958.16;4868639;28;103758;-80
2021/06/20 01:20:49;;;;;;;22.50;7.53;;;;;;;27.13;58.31;97954.16;4869415;28;102799;-79
2021/06/20 01:23:18;;;;;;;22.25;7.15;;;;;;;27.21;57.91;97959.25;4868724;28;103007;-78
2021/06/20 01:25:46;;;;;;;26.75;8.68;;;;;;;27.24;57.47;97964.19;4866985;28;108282;-80
2021/06/20 01:28:15;;;;;;;20.67;8.38;;;;;;;27.31;57.51;97964.09;4869741;28;105100;-80
2021/06/20 01:30:45;;;;;;;20.90;8.25;;;;;;;27.23;57.90;97978.81;4868548;28;103094;-80
2021/06/20 01:33:15;;;;;;;20.13;7.95;;;;;;;27.26;57.73;97978.34;4869412;28;102776;-80
2021/06/20 01:35:44;;;;;;;31.40;9.35;;;;;;;27.23;57.50;97988.84;4855348;28;103629;-80
2021/06/20 01:38:12;;;;;;;20.85;8.27;;;;;;;27.24;57.73;97979.63;4868506;28;105664;-79
2021/06/20 01:40:42;;;;;;;26.80;8.77;;;;;;;27.19;58.06;97991.19;4866555;28;103083;-80
2021/06/20 01:43:10;;;;;;;29.05;9.20;;;;;;;27.16;57.89;97988.09;4863637;28;102749;-80
2021/06/20 01:45:39;;;;;;;24.23;7.30;;;;;;;27.19;57.97;97993.06;4873195;28;103842;-79
2021/06/20 01:48:08;;;;;;;27.17;9.60;;;;;;;27.01;58.37;98000.22;4868573;28;103616;-80
2021/06/20 01:50:36;;;;;;;20.00;8.32;;;;;;;27.05;58.23;97998.72;4868799;28;102912;-80
2021/06/20 01:53:07;;;;;;;26.73;8.93;;;;;;;27.05;58.35;98000.59;4868242;28;103136;-80
2021/06/20 01:55:36;;;;;;;23.27;8.48;;;;;;;27.05;58.02;98009.56;4869029;28;103206;-80
2021/06/20 01:58:06;;;;;;;22.70;8.15;;;;;;;26.98;58.20;98010.69;4868062;28;103695;-79
2021/06/20 02:00:35;;;;;;;14.73;7.18;;;;;;;27.02;57.91;98015.44;4866376;28;103229;-79
2021/06/20 02:03:08;;;;;;;16.13;6.70;;;;;;;27.04;57.46;98024.16;4846255;28;103775;-79
2021/06/20 02:05:37;;;;;;;28.63;8.32;;;;;;;26.94;57.70;98010.34;4866760;28;105032;-80
2021/06/20 02:08:06;;;;;;;13.48;6.20;;;;;;;26.93;57.87;98007.84;4865943;28;108888;-80
2021/06/20 02:10:34;;;;;;;31.25;8.88;;;;;;;26.83;58.10;97994.88;4867032;28;102886;-80
2021/06/20 02:13:03;;;;;;;17.75;6.53;;;;;;;26.84;58.00;98007.34;4868743;28;103152;-80
2021/06/20 02:15:32;;;;;;;25.60;7.60;;;;;;;26.85;57.54;98014.44;4867984;28;103704;-80
2021/06/20 02:18:00;;;;;;;27.60;9.15;;;;;;;26.82;57.70;98022.19;4868533;28;103687;-80
2021/06/20 02:20:29;;;;;;;29.65;8.77;;;;;;;26.84;57.85;98034.44;4868755;28;102958;-80
2021/06/20 02:22:56;;;;;;;27.00;9.15;;;;;;;26.81;58.14;98050.34;4868108;28;102676;-80
2021/06/20 02:25:27;;;;;;;25.02;8.32;;;;;;;26.74;58.55;98047.69;4868050;28;103192;-80
2021/06/20 02:27:55;;;;;;;21.20;7.88;;;;;;;26.71;58.90;98058.16;4868947;28;104149;-80
2021/06/20 02:30:24;;;;;;;29.92;8.93;;;;;;;26.61;58.77;98061.41;4864628;28;103104;-81
2021/06/20 02:32:54;;;;;;;29.58;8.57;;;;;;;26.68;58.68;98083.81;4867978;28;102783;-80
2021/06/20 02:35:23;;;;;;;22.80;7.55;;;;;;;26.67;59.03;98093.00;4867824;28;106331;-80
2021/06/20 02:37:52;;;;;;;25.70;8.73;;;;;;;26.44;60.56;98092.88;4865874;28;103736;-80
2021/06/20 02:40:22;;;;;;;34.65;9.50;;;;;;;26.15;63.17;98077.38;4867115;28;103046;-80
2021/06/20 02:42:50;;;;;;;19.38;8.38;;;;;;;26.16;63.76;98085.25;4875756;28;102780;-80
2021/06/20 02:45:20;;;;;;;33.63;9.75;;;;;;;26.00;64.91;98084.97;4860524;28;103457;-80
2021/06/20 02:47:49;;;;;;;25.50;9.07;;;;;;;26.07;64.94;98085.75;4867900;28;104339;-79
2021/06/20 02:50:19;;;;;;;26.00;9.02;;;;;;;25.98;65.55;98092.50;4866593;28;102739;-79
2021/06/20 02:52:47;;;;;;;21.42;8.95;;;;;;;25.70;66.90;98091.09;4867224;28;103306;-80
2021/06/20 02:55:16;;;;;;;26.88;9.20;;;;;;;25.55;68.94;98096.00;4866421;28;107899;-80
2021/06/20 02:57:45;;;;;;;22.67;9.25;;;;;;;25.56;69.22;98100.38;4865763;28;103116;-80
2021/06/20 03:00:15;;;;;;;26.23;8.63;;;;;;;25.34;69.82;98102.59;4866068;28;102987;-80
2021/06/20 03:02:48;;;;;;;19.92;7.28;;;;;;;25.54;69.22;98117.88;4868759;28;102739;-80
2021/06/20 03:05:17;;;;;;;18.95;8.25;;;;;;;25.56;69.30;98127.41;4866645;28;105555;-80
2021/06/20 03:07:46;;;;;;;21.92;9.63;;;;;;;25.34;70.62;98128.78;4866813;28;104356;-80
2021/06/20 03:10:14;;;;;;;23.63;8.35;;;;;;;25.27;71.14;98127.97;4850124;28;103109;-80
2021/06/20 03:12:43;;;;;;;13.00;6.47;;;;;;;25.16;71.46;98116.00;4867644;28;103120;-80
2021/06/20 03:15:12;;;;;;;12.35;6.35;;;;;;;25.32;70.92;98130.84;4854267;28;105125;-78
2021/06/20 03:17:40;;;;;;;21.05;8.40;;;;;;;25.25;71.62;98127.38;4865129;28;104366;-80
2021/06/20 03:20:09;;;;;;;25.20;7.97;;;;;;;25.30;71.35;98138.38;4864334;28;102714;-80
2021/06/20 03:22:39;;;;;;;14.57;7.55;;;;;;;25.38;70.94;98151.63;4866863;28;102913;-80
2021/06/20 03:25:08;;;;;;;18.17;8.25;;;;;;;25.34;71.57;98156.66;4863714;28;103409;-80
2021/06/20 03:27:37;;;;;;;19.88;7.60;;;;;;;25.30;71.37;98158.13;4872180;28;105242;-80
2021/06/20 03:30:07;;;;;;;16.75;6.72;;;;;;;25.35;70.73;98162.88;4867155;28;103093;-79
2021/06/20 03:32:35;;;;;;;16.88;7.25;;;;;;;24.87;73.70;98140.06;4867273;28;103220;-79
2021/06/20 03:35:03;;;;;;;11.68;6.25;;;;;;;25.05;72.01;98150.97;4871731;28;103862;-79
2021/06/20 03:37:31;;;;;;;11.93;5.20;;;;;;;25.02;72.45;98135.19;4862750;28;103220;-82
2021/06/20 03:40:00;;;;;;;9.77;5.68;;;;;;;25.22;71.32;98152.13;4873014;28;102979;-80
2021/06/20 03:42:30;;;;;;;14.50;6.35;;;;;;;25.20;71.98;98156.94;4867383;28;103101;-80
2021/06/20 03:44:58;;;;;;;8.23;5.20;;;;;;;25.26;71.39;98150.69;4866140;28;103863;-79
2021/06/20 03:47:26;;;;;;;6.93;4.53;;;;;;;25.13;72.34;98153.44;4867160;28;103809;-79
2021/06/20 03:49:54;;;;;;;14.27;6.13;;;;;;;25.17;72.10;98163.59;4867061;28;102751;-79
2021/06/20 03:52:22;;;;;;;14.95;6.75;;;;;;;25.30;71.46;98157.28;4855928;28;102981;-74
2021/06/20 03:54:50;;;;;;;10.00;6.20;;;;;;;25.34;71.00;98155.81;4865400;28;104534;-71
2021/06/20 03:57:21;;;;;;;21.92;8.73;;;;;;;25.16;73.53;98166.50;4864714;28;103996;-70
2021/06/20 03:59:49;;;;;;;10.43;5.22;;;;;;;25.25;71.82;98162.53;4865548;28;103003;-72
2021/06/20 04:02:18;;;;;;;8.00;4.63;;;;;;;25.41;70.51;98169.28;4864359;28;102990;-74
2021/06/20 04:04:46;;;;;;;18.17;7.47;;;;;;;25.38;71.83;98170.53;4866180;28;103762;-72
2021/06/20 04:07:14;;;;;;;9.52;5.15;;;;;;;25.43;71.38;98172.63;4861601;28;103972;-71
2021/06/20 04:09:44;;;;;;;7.82;5.00;;;;;;;25.48;71.00;98162.84;4866048;28;103107;-72
2021/06/20 04:12:15;;;;;;;8.93;5.22;;;;;;;25.58;70.58;98157.75;4867012;28;103150;-72
2021/06/20 04:14:44;;;;;;;8.55;4.72;;;;;;;25.66;69.67;98159.34;4867791;28;103387;-73
2021/06/20 04:17:13;;;;;;;17.60;8.10;;;;;;;25.50;71.99;98144.50;4869687;28;103787;-75
2021/06/20 04:19:41;;;;;;;17.05;8.50;;;;;;;25.24;73.29;98141.94;4870318;28;102914;-71
2021/06/20 04:22:09;;;;;;;11.45;6.70;;;;;;;25.28;73.13;98135.91;4853549;28;102928;-74
2021/06/20 04:24:37;;;;;;;16.73;7.55;;;;;;;25.05;74.04;98129.38;4868349;28;103417;-73
2021/06/20 04:27:05;;;;;;;16.00;7.38;;;;;;;25.30;72.86;98138.38;4871817;28;103873;-71
2021/06/20 04:29:33;;;;;;;14.00;6.25;;;;;;;25.45;73.54;98138.91;4871724;28;103002;-73
2021/06/20 04:32:03;;;;;;;9.77;5.78;;;;;;;25.53;73.81;98138.66;4868452;28;102706;-75
2021/06/20 04:34:31;;;;;;;9.02;4.90;;;;;;;25.53;73.45;98149.47;4882331;28;103870;-76
2021/06/20 04:36:59;;;;;;;7.40;5.00;;;;;;;25.59;72.35;98147.78;4882058;28;103147;-72
2021/06/20 04:39:28;;;;;;;7.10;4.90;;;;;;;25.50;73.39;98165.31;4868295;28;103564;-74
2021/06/20 04:41:57;;;;;;;15.98;7.07;;;;;;;25.51;72.23;98153.44;4870118;28;102953;-72
2021/06/20 04:51:58;;;;;;;23.83;8.80;;;;;;;24.92;75.54;98118.63;4919860;23;103252;-75
2021/06/20 04:54:26;;;;;;;11.77;7.05;;;;;;;25.06;75.35;98129.16;4869527;28;102877;-75
2021/06/20 04:56:53;;;;;;;24.30;9.23;;;;;;;25.13;75.59;98126.41;4870620;28;105065;-76
2021/06/20 04:59:21;;;;;;;9.70;5.65;;;;;;;25.54;73.47;98126.81;4871240;28;103685;-78
2021/06/20 05:01:49;;;;;;;15.60;6.72;;;;;;;25.50;75.06;98133.69;4857963;28;104259;-76
2021/06/20 05:04:18;;;;;;;8.15;5.32;;;;;;;25.78;73.07;98139.50;4866685;28;103096;-75
2021/06/20 05:06:46;;;;;;;11.77;5.82;;;;;;;25.94;72.09;98147.06;4882477;28;103832;-75
2021/06/20 05:09:15;;;;;;;18.42;9.05;;;;;;;25.98;74.00;98152.03;4873378;28;105238;-75
2021/06/20 05:11:43;;;;;;;26.48;9.57;;;;;;;25.43;74.52;98142.88;4887499;28;103071;-73
2021/06/20 05:14:11;;;;;;;12.65;6.63;;;;;;;25.58;74.02;98152.34;4888295;28;102845;-73
2021/06/20 05:16:39;;;;;;;18.80;8.75;;;;;;;25.42;75.19;98142.03;4856266;28;103779;-73
2021/06/20 05:19:07;;;;;;;17.17;7.93;;;;;;;25.65;74.48;98147.75;4863229;28;105574;-77
2021/06/20 05:21:36;;;;;;;19.08;6.78;;;;;;;25.90;72.88;98151.28;4874122;28;102846;-73
2021/06/20 05:24:05;;;;;;;12.90;7.53;;;;;;;25.99;72.40;98168.06;4868664;28;103212;-74
2021/06/20 05:26:34;;;;;;;10.15;5.30;;;;;;;25.88;73.11;98177.72;4861474;28;103982;-73
2021/06/20 05:29:02;;;;;;;23.25;9.32;;;;;;;25.73;71.72;98179.09;4868562;28;103414;-74
2021/06/20 05:31:30;;;;;;;20.00;7.40;;;;;;;25.57;73.57;98180.44;4869141;28;103069;-75
2021/06/20 05:33:59;;;;;;;14.52;6.65;;;;;;;25.72;73.77;98186.38;4868780;28;102958;-79
2021/06/20 05:36:27;;;;;;;22.92;8.40;;;;;;;25.53;73.53;98190.03;4870031;28;103249;-79
2021/06/20 05:38:55;;;;;;;21.40;9.05;;;;;;;25.01;77.97;98193.81;4862824;28;103694;-80
2021/06/20 05:41:24;;;;;;;21.98;8.98;;;;;;;24.88;79.14;98199.28;4869586;28;103062;-80
2021/06/20 05:43:54;;;;;;;21.95;9.05;;;;;;;24.47;81.70;98190.66;4876371;28;103066;-77
2021/06/20 05:46:23;;;;;;;21.20;9.07;;;;;;;24.33;81.85;98194.41;4872867;28;103377;-80
2021/06/20 05:48:51;;;;;;;20.45;9.00;;;;;;;24.32;82.23;98177.38;4887101;28;103697;-86
2021/06/20 05:51:19;;;;;;;16.48;8.38;;;;;;;24.47;81.14;98175.28;4872249;28;103270;-82
2021/06/20 05:53:47;;;;;;;25.27;9.30;;;;;;;24.41;81.84;98168.03;4868948;28;102666;-78
2021/06/20 05:56:15;;;;;;;20.13;9.02;;;;;;;24.49;80.71;98173.19;4872592;28;103982;-80
2021/06/20 05:58:43;;;;;;;15.43;7.32;;;;;;;24.62;80.01;98183.13;4872058;28;103293;-80
2021/06/20 06:01:12;;;;;;;24.77;9.23;;;;;;;24.99;78.17;98185.09;4852031;28;103091;-74
2021/06/20 06:03:41;;;;;;;18.08;8.35;;;;;;;24.91;78.36;98192.59;4863736;28;103155;-74
2021/06/20 06:06:09;;;;;;;22.70;9.55;;;;;;;24.96;77.51;98190.94;4858640;28;105446;-74
2021/06/20 06:08:37;;;;;;;13.48;7.32;;;;;;;25.07;77.32;98200.22;4863255;28;104360;-74
2021/06/20 06:11:05;;;;;;;24.08;8.52;;;;;;;25.03;77.86;98196.31;4871028;28;103123;-74
2021/06/20 06:13:32;;;;;;;18.50;8.38;;;;;;;25.09;77.75;98184.66;4871959;28;102892;-75
2021/06/20 06:16:01;;;;;;;11.77;6.35;;;;;;;25.58;75.94;98186.66;4864384;28;104843;-74
2021/06/20 06:18:30;;;;;;;25.55;8.98;;;;;;;26.00;74.04;98193.22;4881514;28;103246;-74
2021/06/20 06:20:58;;;;;;;26.98;9.25;;;;;;;25.76;74.71;98189.47;4868513;28;103024;-74
2021/06/20 06:23:26;;;;;;;20.73;8.85;;;;;;;25.61;72.54;98197.06;4871295;28;102860;-74
2021/06/20 06:25:54;;;;;;;21.70;8.45;;;;;;;25.49;73.49;98202.31;4877723;28;104498;-73
2021/06/20 06:28:22;;;;;;;14.05;6.88;;;;;;;25.43;72.73;98197.78;4860322;28;103918;-74
2021/06/20 06:30:50;;;;;;;16.23;6.55;;;;;;;25.14;73.95;98211.84;4868194;28;103078;-74
2021/06/20 06:33:18;;;;;;;19.05;7.68;;;;;;;25.17;71.12;98225.78;4868392;28;102871;-75
2021/06/20 06:35:48;;;;;;;18.88;6.45;;;;;;;25.10;71.94;98224.13;4866538;28;103584;-74
2021/06/20 06:38:20;;;;;;;16.25;6.32;;;;;;;25.23;71.31;98240.31;4878901;28;103951;-74
2021/06/20 06:40:48;;;;;;;21.17;6.47;;;;;;;25.36;70.75;98234.81;4883737;28;103137;-74
2021/06/20 06:43:16;;;;;;;16.52;6.72;;;;;;;25.34;70.21;98245.88;4876868;28;102772;-74
2021/06/20 06:45:44;;;;;;;19.88;7.18;;;;;;;25.35;69.47;98250.22;4870912;28;103592;-74
2021/06/20 06:48:13;;;;;;;15.75;6.10;;;;;;;25.40;69.95;98241.47;4880122;28;103283;-74
2021/06/20 06:50:41;;;;;;;15.57;5.53;;;;;;;25.03;71.36;98243.09;4850396;28;102799;-74
2021/06/20 06:53:11;;;;;;;16.52;5.72;;;;;;;25.26;71.37;98237.97;4885107;28;103241;-75
2021/06/20 06:55:39;;;;;;;15.70;6.20;;;;;;;25.34;71.20;98231.53;4879116;28;104905;-75
2021/06/20 06:58:07;;;;;;;16.48;5.70;;;;;;;25.31;70.61;98249.00;4866931;28;104110;-75
2021/06/20 07:00:36;;;;;;;10.80;5.38;;;;;;;25.33;70.01;98257.72;4870617;28;103000;-74
2021/06/20 07:03:04;;;;;;;11.63;5.55;;;;;;;25.44;69.76;98263.47;4848317;28;102984;-74
2021/06/20 07:05:32;;;;;;;8.57;4.78;;;;;;;25.51;69.45;98251.63;4848032;28;106482;-75
2021/06/20 07:08:00;;;;;;;12.35;5.80;;;;;;;25.61;68.68;98240.34;4866151;28;103722;-74
2021/06/20 07:10:29;;;;;;;12.50;5.22;;;;;;;25.13;69.67;98245.31;4870848;28;103082;-74
2021/06/20 07:13:00;;;;;;;13.10;5.38;;;;;;;25.33;69.24;98246.91;4879042;28;102768;-74
2021/06/20 07:15:28;;;;;;;10.40;5.35;;;;;;;25.34;69.57;98250.44;4871892;28;103880;-77
2021/06/20 07:17:56;;;;;;;10.15;5.18;;;;;;;25.45;69.56;98236.25;4852370;28;105474;-74
2021/06/20 07:20:24;;;;;;;13.63;4.72;;;;;;;25.34;69.68;98242.34;4864834;28;103046;-74
2021/06/20 07:22:52;;;;;;;15.45;5.22;;;;;;;25.26;69.96;98229.06;4865918;28;103187;-75
2021/06/20 07:25:23;;;;;;;13.85;5.63;;;;;;;25.01;69.65;98225.44;4879700;28;103868;-75
2021/06/20 07:27:52;;;;;;;10.70;5.10;;;;;;;25.29;70.69;98234.84;4860504;28;104864;-72
2021/06/20 07:30:22;;;;;;;16.10;5.45;;;;;;;25.43;67.95;98235.63;4861391;28;103665;-76
2021/06/20 07:32:51;;;;;;;8.88;4.57;;;;;;;25.86;68.56;98236.63;4866132;28;103062;-73
2021/06/20 07:35:19;;;;;;;13.27;4.93;;;;;;;25.91;68.43;98244.09;4865085;28;103899;-75
2021/06/20 07:37:47;;;;;;;12.45;5.10;;;;;;;25.41;70.15;98236.88;4862424;28;103879;-78
2021/06/20 07:40:16;;;;;;;15.65;5.32;;;;;;;25.47;69.42;98242.28;4847841;28;103072;-78
2021/06/20 07:42:45;;;;;;;13.77;5.70;;;;;;;25.28;69.77;98243.19;4865348;28;103865;-74
2021/06/20 07:45:17;;;;;;;13.30;4.93;;;;;;;25.79;68.90;98246.69;4850328;28;104058;-74
2021/06/20 07:47:46;;;;;;;10.63;4.57;;;;;;;25.85;69.59;98251.19;4867913;28;104312;-74
2021/06/20 07:50:14;;;;;;;14.10;5.13;;;;;;;25.86;69.71;98247.44;4863934;28;103004;-87
2021/06/20 07:52:43;;;;;;;8.00;4.40;;;;;;;26.47;68.46;98257.63;4859550;28;105415;-74
2021/06/20 07:55:12;;;;;;;12.18;4.93;;;;;;;26.27;69.00;98265.09;4860605;28;104617;-74
2021/06/20 07:57:40;;;;;;;12.13;5.55;;;;;;;25.80;69.91;98252.91;4863974;28;104850;-74
2021/06/20 08:00:09;;;;;;;12.82;5.07;;;;;;;26.15;68.95;98253.31;4862195;28;103257;-74
2021/06/20 08:02:43;;;;;;;10.35;4.63;;;;;;;26.33;67.54;98256.91;4867976;28;103356;-75
2021/06/20 08:05:12;;;;;;;15.93;5.50;;;;;;;26.07;68.17;98246.28;4861948;28;104863;-74
2021/06/20 08:07:40;;;;;;;15.30;5.65;;;;;;;25.43;70.54;98245.63;4862910;28;105194;-74
2021/06/20 08:10:09;;;;;;;12.02;5.38;;;;;;;25.55;69.79;98239.31;4863333;28;103189;-74
2021/06/20 08:12:38;;;;;;;11.13;4.80;;;;;;;26.08;68.49;98236.28;4846861;28;103345;-74
2021/06/20 08:15:08;;;;;;;17.77;5.15;;;;;;;25.30;70.39;98238.38;4862685;28;103907;-74
2021/06/20 08:17:36;;;;;;;11.35;5.20;;;;;;;25.77;69.45;98231.69;4862810;28;103317;-74
2021/06/20 08:20:07;;;;;;;12.10;5.20;;;;;;;25.52;69.51;98220.81;4860560;28;103094;-76
2021/06/20 08:22:36;;;;;;;12.32;5.05;;;;;;;25.22;71.03;98217.84;4861935;28;104451;-74
2021/06/20 08:25:04;;;;;;;10.27;4.32;;;;;;;25.24;70.62;98213.03;4862053;28;104641;-74
2021/06/20 08:27:33;;;;;;;11.77;5.38;;;;;;;25.15;70.14;98200.00;4861656;28;104771;-74
2021/06/20 08:30:01;;;;;;;9.18;4.47;;;;;;;25.50;69.57;98204.00;4848715;28;103188;-74
2021/06/20 08:32:30;;;;;;;10.30;4.60;;;;;;;25.69;68.70;98213.84;4866133;28;103022;-73
2021/06/20 08:34:59;;;;;;;11.00;4.70;;;;;;;25.93;67.77;98201.41;4847380;28;103852;-74
2021/06/20 08:37:29;;;;;;;9.20;4.32;;;;;;;26.08;67.24;98192.97;4845281;28;103665;-74
2021/06/20 08:39:58;;;;;;;8.45;4.45;;;;;;;25.76;67.13;98201.13;4864090;28;103543;-74
2021/06/20 08:42:27;;;;;;;9.63;4.82;;;;;;;25.06;67.60;98204.81;4862689;28;103308;-74
2021/06/20 08:44:55;;;;;;;7.75;4.45;;;;;;;25.43;68.21;98205.91;4860770;28;104855;-74
2021/06/20 08:47:23;;;;;;;6.07;4.00;;;;;;;25.70;67.17;98202.00;4861913;28;104235;-73
2021/06/20 08:49:51;;;;;;;12.57;4.85;;;;;;;25.28;68.63;98202.63;4863816;28;102919;-74
2021/06/20 08:52:19;;;;;;;9.13;4.30;;;;;;;25.43;67.33;98200.50;4863090;28;103162;-74
2021/06/20 08:55:05;;;;;;;6.95;3.70;;;;;;;26.44;66.80;98201.22;4862748;28;105305;-73
2021/06/20 08:57:34;;;;;;;7.35;3.40;;;;;;;27.16;62.89;98194.16;4862234;28;104711;-74
2021/06/20 09:00:05;;;;;;;8.00;3.75;;;;;;;27.40;62.00;98190.47;4851669;28;103722;-74
2021/06/20 09:02:33;;;;;;;4.05;3.08;;;;;;;27.60;61.44;98191.06;4868868;28;103575;-78
2021/06/20 09:05:04;;;;;;;5.88;3.58;;;;;;;27.54;60.67;98194.69;4870774;28;103797;-75
2021/06/20 09:07:35;;;;;;;8.70;4.05;;;;;;;27.39;61.52;98186.13;4865034;28;103364;-75
2021/06/20 09:10:13;;;;;;;9.00;4.15;;;;;;;26.35;64.06;98181.72;4867708;28;103427;-75
2021/06/20 09:12:49;;;;;;;7.80;3.90;;;;;;;26.66;63.93;98188.88;4849419;28;103154;-75
2021/06/20 09:15:24;;;;;;;10.85;4.40;;;;;;;26.56;64.74;98183.16;4861188;28;104039;-75
2021/06/20 09:17:54;;;;;;;8.25;3.80;;;;;;;26.02;66.28;98175.72;4860435;28;104212;-75
2021/06/20 09:20:35;;;;;;;12.50;4.82;;;;;;;25.30;66.94;98174.34;4860807;28;103962;-75
2021/06/20 09:23:07;;;;;;;7.35;3.67;;;;;;;26.19;66.02;98184.16;4873389;28;103002;-75
2021/06/20 09:25:38;;;;;;;7.07;3.47;;;;;;;26.00;65.74;98177.00;4874073;28;103908;-75
2021/06/20 09:28:07;;;;;;;10.93;4.50;;;;;;;25.88;65.98;98177.72;4834164;28;103776;-76
2021/06/20 09:30:45;;;;;;;7.93;4.22;;;;;;;25.60;66.37;98182.69;4859007;28;104256;-75
2021/06/20 09:33:13;;;;;;;8.82;3.85;;;;;;;26.57;64.88;98171.25;4861384;28;103288;-75
2021/06/20 09:35:44;;;;;;;7.70;3.70;;;;;;;26.84;64.66;98175.34;4863178;28;105495;-75
2021/06/20 09:38:20;;;;;;;6.70;3.90;;;;;;;26.38;64.47;98175.00;4865483;28;103288;-75
2021/06/20 09:40:53;;;;;;;11.02;4.38;;;;;;;26.11;64.53;98170.84;4866390;28;104191;-75
2021/06/20 09:43:21;;;;;;;5.85;3.78;;;;;;;26.44;65.17;98177.63;4867471;28;102771;-75
2021/06/20 09:45:50;;;;;;;13.80;4.25;;;;;;;26.61;65.85;98169.75;4858848;28;103797;-75
2021/06/20 09:48:23;;;;;;;8.55;4.90;;;;;;;25.92;65.68;98173.53;4866332;28;104195;-75
2021/06/20 09:50:52;;;;;;;15.07;4.97;;;;;;;25.91;66.80;98169.16;4863799;28;103083;-75
2021/06/20 09:53:21;;;;;;;12.15;4.30;;;;;;;26.49;65.51;98166.97;4861382;28;103150;-75
2021/06/20 09:55:50;;;;;;;14.27;4.80;;;;;;;26.23;65.37;98171.81;4865263;28;103762;-77
2021/06/20 09:58:22;;;;;;;8.43;4.75;;;;;;;26.36;65.45;98160.84;4866936;28;103253;-80
2021/06/20 10:00:50;;;;;;;7.60;4.30;;;;;;;26.09;66.41;98159.44;4866554;28;102753;-90
2021/06/20 10:03:25;;;;;;;7.55;4.50;;;;;;;26.40;65.37;98156.66;4850590;28;103019;-74
2021/06/20 10:05:54;;;;;;;6.40;3.65;;;;;;;26.82;65.39;98154.97;4878072;28;104247;-75
2021/06/20 10:08:23;;;;;;;9.57;4.85;;;;;;;27.27;64.20;98158.97;4859547;28;103600;-77
2021/06/20 10:10:52;;;;;;;6.50;3.58;;;;;;;27.93;62.37;98153.38;4865124;28;103841;-75
2021/06/20 10:13:20;;;;;;;6.90;3.22;;;;;;;27.35;64.23;98149.66;4860066;28;103796;-75
2021/06/20 10:15:49;;;;;;;6.20;3.55;;;;;;;27.52;63.40;98139.84;4860599;28;103988;-75
2021/06/20 10:18:17;;;;;;;12.27;5.68;;;;;;;27.43;63.45;98147.47;4845763;28;105348;-75
2021/06/20 10:20:46;;;;;;;8.88;4.45;;;;;;;27.81;63.44;98138.16;4844982;28;104603;-75
2021/06/20 10:23:19;;;;;;;10.15;4.97;;;;;;;27.52;63.30;98129.81;4848747;28;103206;-75
2021/06/20 10:25:47;;;;;;;9.45;4.22;;;;;;;27.24;65.01;98121.44;4858423;28;104045;-75
2021/06/20 10:28:22;;;;;;;8.48;4.30;;;;;;;26.72;65.75;98130.25;4860046;28;104442;-75
2021/06/20 10:30:50;;;;;;;5.20;3.45;;;;;;;27.72;63.27;98129.50;4860271;28;103401;-75
2021/06/20 10:33:24;;;;;;;11.68;4.97;;;;;;;27.47;63.16;98120.72;4864999;28;103176;-77
2021/06/20 10:36:01;;;;;;;11.18;5.00;;;;;;;26.04;67.68;98129.50;4858815;28;105249;-75
2021/06/20 10:38:33;;;;;;;13.27;5.15;;;;;;;26.24;68.08;98109.34;4861281;28;104025;-75
2021/06/20 10:41:05;;;;;;;13.13;5.35;;;;;;;26.10;68.18;98107.81;4860592;28;103082;-76
2021/06/20 10:43:38;;;;;;;13.45;5.07;;;;;;;26.40;67.17;98102.50;4802345;28;103464;-76
2021/06/20 10:46:14;;;;;;;12.20;4.82;;;;;;;26.93;65.38;98095.41;4857039;28;104789;-76
2021/06/20 10:48:43;;;;;;;9.75;4.53;;;;;;;26.80;66.64;98092.06;4859114;28;103728;-75
2021/06/20 10:51:18;;;;;;;8.02;4.30;;;;;;;27.38;65.62;98081.41;4856724;28;103404;-75
2021/06/20 10:53:46;;;;;;;9.18;4.13;;;;;;;28.08;63.69;98075.03;4848452;28;103695;-77
2021/06/20 10:56:22;;;;;;;8.63;4.68;;;;;;;28.38;62.07;98084.94;4859769;28;103456;-76
2021/06/20 10:58:53;;;;;;;9.95;4.60;;;;;;;28.10;62.65;98077.50;4863693;28;103745;-78
2021/06/20 11:01:27;;;;;;;11.65;5.30;;;;;;;27.19;64.61;98068.97;4835188;28;103588;-83
2021/06/20 11:04:01;;;;;;;12.80;5.03;;;;;;;27.16;64.60;98080.28;4847101;28;103484;-85
2021/06/20 11:06:29;;;;;;;10.25;5.15;;;;;;;28.42;60.76;98081.50;4855647;28;104189;-83
2021/06/20 11:08:59;;;;;;;11.73;5.72;;;;;;;27.90;60.94;98080.56;4860298;28;105210;-83
2021/06/20 11:11:29;;;;;;;12.00;5.15;;;;;;;28.19;61.22;98086.94;4862893;28;103571;-79
2021/06/20 11:14:09;;;;;;;10.43;4.72;;;;;;;28.89;58.59;98076.78;4864072;28;102984;-85
2021/06/20 11:16:39;;;;;;;8.98;4.32;;;;;;;29.56;56.25;98072.31;4859832;28;104757;-81
2021/06/20 11:19:13;;;;;;;13.07;5.13;;;;;;;29.86;54.49;98074.75;4853118;28;106621;-79
2021/06/20 11:21:44;;;;;;;12.48;4.13;;;;;;;29.78;54.59;98069.69;4865267;28;104321;-82
2021/06/20 11:24:15;;;;;;;11.25;3.72;;;;;;;30.21;52.49;98069.81;4860941;28;103342;-81
2021/06/20 11:26:59;;;;;;;7.28;3.28;;;;;;;30.24;53.10;98066.59;4860496;28;103270;-79
2021/06/20 11:29:39;;;;;;;13.45;3.75;;;;;;;30.99;50.97;98060.50;4868251;28;104123;-80
2021/06/20 11:32:08;;;;;;;4.72;3.00;;;;;;;31.58;48.82;98062.16;4863564;28;102979;-80
2021/06/20 11:34:36;;;;;;;7.32;3.50;;;;;;;32.09;47.11;98055.19;4865812;28;103116;-80
2021/06/20 11:37:15;;;;;;;10.98;3.50;;;;;;;30.93;46.50;98056.06;4863093;28;103935;-79